sensor_id;sensor_type;location;lat;lon;timestamp;pressure;altitude;pressure_sealevel;temperature;humidity
47742;BME280;33504;52.066;6.096;2022-10-31T00:01:26;101977.36;;;16.65;47.90
47742;BME280;33504;52.066;6.096;2022-10-31T00:03:53;101978.54;;;16.11;48.05
47742;BME280;33504;52.066;6.096;2022-10-31T00:06:21;101979.65;;;16.66;47.86
47742;BME280;33504;52.066;6.096;2022-10-31T00:08:53;101978.80;;;16.69;47.75
47742;BME280;33504;52.066;6.096;2022-10-31T00:11:20;101975.92;;;16.44;47.72
47742;BME280;33504;52.066;6.096;2022-10-31T00:13:47;101974.01;;;16.40;47.87
47742;BME280;33504;52.066;6.096;2022-10-31T00:16:15;101973.39;;;16.64;47.72
47742;BME280;33504;52.066;6.096;2022-10-31T00:18:42;101976.43;;;16.67;47.61
47742;BME280;33504;52.066;6.096;2022-10-31T00:21:09;101982.62;;;16.46;47.55
47742;BME280;33504;52.066;6.096;2022-10-31T00:23:36;101985.97;;;16.45;47.43
47742;BME280;33504;52.066;6.096;2022-10-31T00:26:04;101985.13;;;16.68;47.42
47742;BME280;33504;52.066;6.096;2022-10-31T00:28:34;101984.16;;;16.72;47.34
47742;BME280;33504;52.066;6.096;2022-10-31T00:31:02;101982.89;;;16.71;47.20
47742;BME280;33504;52.066;6.096;2022-10-31T00:33:29;101984.71;;;16.20;47.19
47742;BME280;33504;52.066;6.096;2022-10-31T00:35:57;101983.88;;;16.46;47.12
47742;BME280;33504;52.066;6.096;2022-10-31T00:38:24;101982.14;;;16.45;47.13
47742;BME280;33504;52.066;6.096;2022-10-31T00:40:51;101980.60;;;16.42;47.13
47742;BME280;33504;52.066;6.096;2022-10-31T00:43:18;101983.51;;;16.39;47.18
47742;BME280;33504;52.066;6.096;2022-10-31T00:45:45;101987.39;;;16.60;47.23
47742;BME280;33504;52.066;6.096;2022-10-31T00:48:12;101984.28;;;16.42;47.18
47742;BME280;33504;52.066;6.096;2022-10-31T00:50:39;101984.81;;;16.57;47.27
47742;BME280;33504;52.066;6.096;2022-10-31T00:53:06;101981.82;;;16.60;47.18
47742;BME280;33504;52.066;6.096;2022-10-31T00:55:33;101982.75;;;16.36;47.12
47742;BME280;33504;52.066;6.096;2022-10-31T00:58:00;101982.25;;;16.31;47.12
47742;BME280;33504;52.066;6.096;2022-10-31T01:00:27;101988.67;;;16.45;47.05
47742;BME280;33504;52.066;6.096;2022-10-31T01:02:54;101991.51;;;16.19;47.09
47742;BME280;33504;52.066;6.096;2022-10-31T01:05:22;101987.59;;;16.14;47.05
47742;BME280;33504;52.066;6.096;2022-10-31T01:07:49;101993.23;;;16.28;47.08
47742;BME280;33504;52.066;6.096;2022-10-31T01:10:16;101992.57;;;16.23;47.13
47742;BME280;33504;52.066;6.096;2022-10-31T01:12:45;101995.10;;;16.19;47.21
47742;BME280;33504;52.066;6.096;2022-10-31T01:15:16;101998.40;;;16.18;47.20
47742;BME280;33504;52.066;6.096;2022-10-31T01:17:43;101996.44;;;16.14;47.20
47742;BME280;33504;52.066;6.096;2022-10-31T01:20:12;101997.37;;;16.10;47.12
47742;BME280;33504;52.066;6.096;2022-10-31T01:22:40;101996.70;;;16.03;47.22
47742;BME280;33504;52.066;6.096;2022-10-31T01:25:08;101993.29;;;16.23;47.19
47742;BME280;33504;52.066;6.096;2022-10-31T01:27:35;101993.67;;;15.92;47.17
47742;BME280;33504;52.066;6.096;2022-10-31T01:30:03;101992.10;;;15.86;47.12
47742;BME280;33504;52.066;6.096;2022-10-31T01:32:30;101994.37;;;15.79;47.19
47742;BME280;33504;52.066;6.096;2022-10-31T01:34:57;101993.55;;;15.75;47.23
47742;BME280;33504;52.066;6.096;2022-10-31T01:37:24;101992.45;;;15.68;47.25
47742;BME280;33504;52.066;6.096;2022-10-31T01:39:51;101992.62;;;15.64;47.29
47742;BME280;33504;52.066;6.096;2022-10-31T01:42:21;101994.11;;;15.85;47.28
47742;BME280;33504;52.066;6.096;2022-10-31T01:44:54;101995.42;;;15.54;47.26
47742;BME280;33504;52.066;6.096;2022-10-31T01:47:27;101993.15;;;15.48;47.32
47742;BME280;33504;52.066;6.096;2022-10-31T01:49:59;101993.16;;;15.41;47.55
47742;BME280;33504;52.066;6.096;2022-10-31T01:52:30;101990.09;;;15.64;47.56
47742;BME280;33504;52.066;6.096;2022-10-31T01:55:00;101986.56;;;15.82;47.64
47742;BME280;33504;52.066;6.096;2022-10-31T01:57:31;101983.47;;;15.56;47.68
47742;BME280;33504;52.066;6.096;2022-10-31T02:00:02;101978.76;;;15.28;47.56
47742;BME280;33504;52.066;6.096;2022-10-31T02:02:32;101973.70;;;15.18;47.54
47742;BME280;33504;52.066;6.096;2022-10-31T02:05:00;101978.69;;;15.44;47.59
47742;BME280;33504;52.066;6.096;2022-10-31T02:07:33;101981.95;;;15.38;47.59
47742;BME280;33504;52.066;6.096;2022-10-31T02:10:04;101976.16;;;15.07;47.69
47742;BME280;33504;52.066;6.096;2022-10-31T02:12:31;101979.55;;;15.51;47.60
47742;BME280;33504;52.066;6.096;2022-10-31T02:14:59;101990.24;;;15.45;47.49
47742;BME280;33504;52.066;6.096;2022-10-31T02:17:28;101991.77;;;15.18;47.59
47742;BME280;33504;52.066;6.096;2022-10-31T02:20:03;101992.58;;;15.13;47.74
47742;BME280;33504;52.066;6.096;2022-10-31T02:22:39;101989.43;;;15.32;47.85
47742;BME280;33504;52.066;6.096;2022-10-31T02:25:21;101989.66;;;15.29;47.87
47742;BME280;33504;52.066;6.096;2022-10-31T02:28:16;101989.87;;;15.24;47.84
47742;BME280;33504;52.066;6.096;2022-10-31T02:31:00;101985.59;;;15.18;47.90
47742;BME280;33504;52.066;6.096;2022-10-31T02:33:34;101989.03;;;15.18;47.87
47742;BME280;33504;52.066;6.096;2022-10-31T02:36:07;101992.36;;;15.18;47.88
47742;BME280;33504;52.066;6.096;2022-10-31T02:38:46;101992.67;;;15.16;47.88
47742;BME280;33504;52.066;6.096;2022-10-31T02:41:19;101993.67;;;14.91;47.91
47742;BME280;33504;52.066;6.096;2022-10-31T02:43:58;101994.57;;;15.12;47.88
47742;BME280;33504;52.066;6.096;2022-10-31T02:46:34;101991.88;;;15.06;47.91
47742;BME280;33504;52.066;6.096;2022-10-31T02:49:06;101995.87;;;15.02;47.89
47742;BME280;33504;52.066;6.096;2022-10-31T02:51:34;101999.36;;;14.97;47.93
47742;BME280;33504;52.066;6.096;2022-10-31T02:54:02;101994.94;;;14.72;47.99
47742;BME280;33504;52.066;6.096;2022-10-31T02:56:29;101992.68;;;14.94;48.03
47742;BME280;33504;52.066;6.096;2022-10-31T02:59:00;101989.84;;;15.15;48.03
47742;BME280;33504;52.066;6.096;2022-10-31T03:01:41;101987.79;;;15.11;48.01
47742;BME280;33504;52.066;6.096;2022-10-31T03:04:25;101986.59;;;14.80;47.89
47742;BME280;33504;52.066;6.096;2022-10-31T03:07:00;101986.56;;;14.72;47.82
47742;BME280;33504;52.066;6.096;2022-10-31T03:09:36;101985.72;;;14.88;47.77
47742;BME280;33504;52.066;6.096;2022-10-31T03:12:12;101983.36;;;14.60;47.82
47742;BME280;33504;52.066;6.096;2022-10-31T03:14:43;101988.07;;;14.54;47.73
47742;BME280;33504;52.066;6.096;2022-10-31T03:17:15;101985.41;;;14.46;47.62
47742;BME280;33504;52.066;6.096;2022-10-31T03:19:47;101982.39;;;14.58;47.61
47742;BME280;33504;52.066;6.096;2022-10-31T03:22:19;101982.80;;;14.28;47.68
47742;BME280;33504;52.066;6.096;2022-10-31T03:24:48;101987.62;;;14.42;47.63
47742;BME280;33504;52.066;6.096;2022-10-31T03:27:18;101987.56;;;14.12;47.58
47742;BME280;33504;52.066;6.096;2022-10-31T03:29:48;101990.06;;;14.04;47.59
47742;BME280;33504;52.066;6.096;2022-10-31T03:32:20;101989.51;;;14.19;47.70
47742;BME280;33504;52.066;6.096;2022-10-31T03:34:50;101984.86;;;14.13;47.69
47742;BME280;33504;52.066;6.096;2022-10-31T03:37:20;101980.54;;;13.87;47.69
47742;BME280;33504;52.066;6.096;2022-10-31T03:39:49;101984.65;;;13.86;47.66
47742;BME280;33504;52.066;6.096;2022-10-31T03:42:20;101988.02;;;14.26;47.70
47742;BME280;33504;52.066;6.096;2022-10-31T03:44:53;101990.94;;;14.21;47.76
47742;BME280;33504;52.066;6.096;2022-10-31T03:47:20;101987.37;;;13.88;47.83
47742;BME280;33504;52.066;6.096;2022-10-31T03:49:48;101990.21;;;13.83;47.74
47742;BME280;33504;52.066;6.096;2022-10-31T03:52:21;101990.06;;;14.03;47.68
47742;BME280;33504;52.066;6.096;2022-10-31T03:54:56;101991.28;;;13.96;47.69
47742;BME280;33504;52.066;6.096;2022-10-31T03:57:27;101993.96;;;13.90;47.61
47742;BME280;33504;52.066;6.096;2022-10-31T03:59:59;101994.03;;;13.85;47.59
47742;BME280;33504;52.066;6.096;2022-10-31T04:02:33;101996.10;;;13.79;47.57
47742;BME280;33504;52.066;6.096;2022-10-31T04:05:01;101998.24;;;13.74;47.66
47742;BME280;33504;52.066;6.096;2022-10-31T04:07:31;101998.66;;;13.44;47.74
47742;BME280;33504;52.066;6.096;2022-10-31T04:10:03;101997.72;;;13.71;47.94
47742;BME280;33504;52.066;6.096;2022-10-31T04:12:32;101997.74;;;13.69;47.89
47742;BME280;33504;52.066;6.096;2022-10-31T04:15:03;101996.58;;;13.65;47.74
47742;BME280;33504;52.066;6.096;2022-10-31T04:17:33;101995.26;;;13.59;47.65
47742;BME280;33504;52.066;6.096;2022-10-31T04:20:03;101997.28;;;13.53;47.65
47742;BME280;33504;52.066;6.096;2022-10-31T04:22:30;101995.67;;;13.48;47.66
47742;BME280;33504;52.066;6.096;2022-10-31T04:24:57;101992.75;;;13.92;47.78
47742;BME280;33504;52.066;6.096;2022-10-31T04:27:24;101993.04;;;13.61;47.68
47742;BME280;33504;52.066;6.096;2022-10-31T04:29:52;101994.56;;;13.35;47.64
47742;BME280;33504;52.066;6.096;2022-10-31T04:32:18;101993.27;;;13.51;47.65
47742;BME280;33504;52.066;6.096;2022-10-31T04:34:45;101989.38;;;13.74;47.65
47742;BME280;33504;52.066;6.096;2022-10-31T04:37:13;101988.88;;;13.23;47.80
47742;BME280;33504;52.066;6.096;2022-10-31T04:39:39;101991.46;;;13.43;47.70
47742;BME280;33504;52.066;6.096;2022-10-31T04:42:06;101991.51;;;13.38;47.64
47742;BME280;33504;52.066;6.096;2022-10-31T04:44:33;101989.62;;;13.32;47.62
47742;BME280;33504;52.066;6.096;2022-10-31T04:47:01;101988.64;;;13.07;47.72
47742;BME280;33504;52.066;6.096;2022-10-31T04:49:27;101990.41;;;13.24;47.72
47742;BME280;33504;52.066;6.096;2022-10-31T04:51:54;101990.79;;;13.18;47.67
47742;BME280;33504;52.066;6.096;2022-10-31T04:54:21;101990.34;;;13.41;47.66
47742;BME280;33504;52.066;6.096;2022-10-31T04:56:48;101994.69;;;12.90;47.69
47742;BME280;33504;52.066;6.096;2022-10-31T04:59:15;101990.52;;;12.86;47.69
47742;BME280;33504;52.066;6.096;2022-10-31T05:01:42;101988.45;;;13.34;47.77
47742;BME280;33504;52.066;6.096;2022-10-31T05:04:09;101987.20;;;12.83;47.66
47742;BME280;33504;52.066;6.096;2022-10-31T05:06:36;101984.27;;;13.08;47.53
47742;BME280;33504;52.066;6.096;2022-10-31T05:09:02;101982.33;;;13.04;47.29
47742;BME280;33504;52.066;6.096;2022-10-31T05:11:29;101981.23;;;12.98;47.11
47742;BME280;33504;52.066;6.096;2022-10-31T05:13:56;101979.18;;;12.94;46.89
47742;BME280;33504;52.066;6.096;2022-10-31T05:16:24;101979.87;;;13.17;46.63
47742;BME280;33504;52.066;6.096;2022-10-31T05:18:51;101973.64;;;12.88;46.76
47742;BME280;33504;52.066;6.096;2022-10-31T05:21:18;101970.78;;;12.86;46.88
47742;BME280;33504;52.066;6.096;2022-10-31T05:23:45;101969.92;;;12.84;46.98
47742;BME280;33504;52.066;6.096;2022-10-31T05:26:12;101970.46;;;12.87;47.20
47742;BME280;33504;52.066;6.096;2022-10-31T05:28:39;101971.09;;;13.15;47.44
47742;BME280;33504;52.066;6.096;2022-10-31T05:31:05;101968.77;;;13.12;47.37
47742;BME280;33504;52.066;6.096;2022-10-31T05:33:33;101967.70;;;13.09;47.38
47742;BME280;33504;52.066;6.096;2022-10-31T05:36:00;101962.63;;;12.80;47.47
47742;BME280;33504;52.066;6.096;2022-10-31T05:38:27;101959.60;;;13.05;47.58
47742;BME280;33504;52.066;6.096;2022-10-31T05:40:54;101961.69;;;13.03;47.67
47742;BME280;33504;52.066;6.096;2022-10-31T05:43:21;101960.59;;;12.55;47.80
47742;BME280;33504;52.066;6.096;2022-10-31T05:45:52;101960.01;;;13.06;47.94
47742;BME280;33504;52.066;6.096;2022-10-31T05:48:19;101960.98;;;13.09;47.93
47742;BME280;33504;52.066;6.096;2022-10-31T05:50:47;101962.82;;;12.83;47.94
47742;BME280;33504;52.066;6.096;2022-10-31T05:53:15;101964.26;;;12.86;47.92
47742;BME280;33504;52.066;6.096;2022-10-31T05:55:42;101960.83;;;12.85;47.80
47742;BME280;33504;52.066;6.096;2022-10-31T05:58:10;101962.19;;;13.09;47.68
47742;BME280;33504;52.066;6.096;2022-10-31T06:00:37;101965.90;;;13.07;47.80
47742;BME280;33504;52.066;6.096;2022-10-31T06:03:06;101963.51;;;13.07;47.89
47742;BME280;33504;52.066;6.096;2022-10-31T06:05:33;101959.96;;;13.08;48.00
47742;BME280;33504;52.066;6.096;2022-10-31T06:08:00;101959.50;;;13.09;47.88
47742;BME280;33504;52.066;6.096;2022-10-31T06:10:28;101957.79;;;12.82;47.82
47742;BME280;33504;52.066;6.096;2022-10-31T06:12:54;101959.94;;;12.82;47.90
47742;BME280;33504;52.066;6.096;2022-10-31T06:15:21;101960.12;;;13.08;47.97
47742;BME280;33504;52.066;6.096;2022-10-31T06:17:57;101960.33;;;12.81;47.94
47742;BME280;33504;52.066;6.096;2022-10-31T06:20:24;101959.85;;;12.80;48.12
47742;BME280;33504;52.066;6.096;2022-10-31T06:22:51;101958.85;;;13.07;48.09
47742;BME280;33504;52.066;6.096;2022-10-31T06:25:18;101960.27;;;12.80;48.21
47742;BME280;33504;52.066;6.096;2022-10-31T06:27:45;101960.56;;;12.80;48.25
47742;BME280;33504;52.066;6.096;2022-10-31T06:30:13;101958.06;;;13.05;48.17
47742;BME280;33504;52.066;6.096;2022-10-31T06:32:40;101955.36;;;13.03;48.16
47742;BME280;33504;52.066;6.096;2022-10-31T06:35:07;101958.08;;;12.74;47.99
47742;BME280;33504;52.066;6.096;2022-10-31T06:37:35;101959.84;;;12.71;47.98
47742;BME280;33504;52.066;6.096;2022-10-31T06:40:02;101960.81;;;12.95;47.96
47742;BME280;33504;52.066;6.096;2022-10-31T06:42:29;101960.75;;;12.93;47.99
47742;BME280;33504;52.066;6.096;2022-10-31T06:44:56;101963.39;;;12.91;47.98
47742;BME280;33504;52.066;6.096;2022-10-31T06:47:24;101964.72;;;12.90;47.98
47742;BME280;33504;52.066;6.096;2022-10-31T06:49:51;101963.18;;;12.92;47.98
47742;BME280;33504;52.066;6.096;2022-10-31T06:52:18;101963.15;;;13.12;47.99
47742;BME280;33504;52.066;6.096;2022-10-31T06:54:46;101968.97;;;12.91;48.05
47742;BME280;33504;52.066;6.096;2022-10-31T06:57:13;101976.78;;;12.89;48.21
47742;BME280;33504;52.066;6.096;2022-10-31T06:59:40;101975.86;;;12.94;48.27
47742;BME280;33504;52.066;6.096;2022-10-31T07:02:09;101980.36;;;12.67;48.39
47742;BME280;33504;52.066;6.096;2022-10-31T07:04:36;101977.91;;;13.04;48.51
47742;BME280;33504;52.066;6.096;2022-10-31T07:07:03;101980.85;;;13.07;48.55
47742;BME280;33504;52.066;6.096;2022-10-31T07:09:30;101981.81;;;12.84;48.61
47742;BME280;33504;52.066;6.096;2022-10-31T07:11:57;101981.84;;;12.68;48.65
47742;BME280;33504;52.066;6.096;2022-10-31T07:14:24;101976.56;;;12.95;48.65
47742;BME280;33504;52.066;6.096;2022-10-31T07:16:52;101975.28;;;13.27;48.87
47742;BME280;33504;52.066;6.096;2022-10-31T07:19:19;101976.81;;;13.08;48.93
47742;BME280;33504;52.066;6.096;2022-10-31T07:21:46;101983.35;;;13.14;48.81
47742;BME280;33504;52.066;6.096;2022-10-31T07:24:13;101986.69;;;13.24;48.85
47742;BME280;33504;52.066;6.096;2022-10-31T07:26:40;101989.69;;;13.28;48.92
47742;BME280;33504;52.066;6.096;2022-10-31T07:29:07;101987.24;;;13.38;48.99
47742;BME280;33504;52.066;6.096;2022-10-31T07:31:34;101982.95;;;13.43;49.06
47742;BME280;33504;52.066;6.096;2022-10-31T07:34:01;101983.26;;;13.20;49.05
47742;BME280;33504;52.066;6.096;2022-10-31T07:36:28;101981.63;;;13.29;48.98
47742;BME280;33504;52.066;6.096;2022-10-31T07:38:55;101980.17;;;13.39;48.96
47742;BME280;33504;52.066;6.096;2022-10-31T07:41:22;101980.27;;;13.59;48.80
47742;BME280;33504;52.066;6.096;2022-10-31T07:43:49;101975.44;;;13.89;48.45
47742;BME280;33504;52.066;6.096;2022-10-31T07:46:15;101978.58;;;14.20;48.13
47742;BME280;33504;52.066;6.096;2022-10-31T07:48:43;101972.97;;;14.37;47.63
47742;BME280;33504;52.066;6.096;2022-10-31T07:51:10;101973.58;;;14.84;47.19
47742;BME280;33504;52.066;6.096;2022-10-31T07:53:38;101975.44;;;14.84;46.90
47742;BME280;33504;52.066;6.096;2022-10-31T07:56:05;101978.18;;;14.93;46.46
47742;BME280;33504;52.066;6.096;2022-10-31T07:58:32;101978.66;;;15.22;46.02
47742;BME280;33504;52.066;6.096;2022-10-31T08:00:59;101982.61;;;15.23;45.70
47742;BME280;33504;52.066;6.096;2022-10-31T08:03:26;101984.50;;;15.24;45.83
47742;BME280;33504;52.066;6.096;2022-10-31T08:05:53;101985.26;;;15.19;45.92
47742;BME280;33504;52.066;6.096;2022-10-31T08:08:20;101986.39;;;15.11;46.17
47742;BME280;33504;52.066;6.096;2022-10-31T08:10:47;101986.35;;;15.11;46.48
47742;BME280;33504;52.066;6.096;2022-10-31T08:13:14;101987.24;;;14.75;47.22
47742;BME280;33504;52.066;6.096;2022-10-31T08:15:41;101987.17;;;14.86;47.57
47742;BME280;33504;52.066;6.096;2022-10-31T08:18:12;101991.92;;;14.95;47.85
47742;BME280;33504;52.066;6.096;2022-10-31T08:20:40;101996.15;;;15.02;48.30
47742;BME280;33504;52.066;6.096;2022-10-31T08:23:09;101993.64;;;15.05;48.64
47742;BME280;33504;52.066;6.096;2022-10-31T08:25:37;101996.39;;;15.11;48.86
47742;BME280;33504;52.066;6.096;2022-10-31T08:28:05;101995.51;;;15.09;48.67
47742;BME280;33504;52.066;6.096;2022-10-31T08:30:35;101997.94;;;15.60;48.80
47742;BME280;33504;52.066;6.096;2022-10-31T08:33:05;101997.70;;;15.81;48.72
47742;BME280;33504;52.066;6.096;2022-10-31T08:35:32;101998.55;;;15.83;48.70
47742;BME280;33504;52.066;6.096;2022-10-31T08:38:00;101997.65;;;15.74;48.98
47742;BME280;33504;52.066;6.096;2022-10-31T08:40:29;101992.07;;;16.11;48.86
47742;BME280;33504;52.066;6.096;2022-10-31T08:42:58;101983.71;;;16.15;48.91
47742;BME280;33504;52.066;6.096;2022-10-31T08:45:26;101982.91;;;16.55;48.38
47742;BME280;33504;52.066;6.096;2022-10-31T08:47:57;101981.50;;;16.82;47.86
47742;BME280;33504;52.066;6.096;2022-10-31T08:50:25;101974.43;;;17.23;47.50
47742;BME280;33504;52.066;6.096;2022-10-31T08:52:52;101971.52;;;17.32;46.82
47742;BME280;33504;52.066;6.096;2022-10-31T08:55:20;101970.28;;;18.31;46.09
47742;BME280;33504;52.066;6.096;2022-10-31T08:57:46;101971.91;;;18.75;44.86
47742;BME280;33504;52.066;6.096;2022-10-31T09:00:14;101969.34;;;19.03;43.85
47742;BME280;33504;52.066;6.096;2022-10-31T09:02:41;101961.04;;;19.50;42.82
47742;BME280;33504;52.066;6.096;2022-10-31T09:05:09;101958.93;;;19.97;42.19
47742;BME280;33504;52.066;6.096;2022-10-31T09:07:35;101959.41;;;20.12;41.72
47742;BME280;33504;52.066;6.096;2022-10-31T09:10:02;101961.84;;;20.28;41.76
47742;BME280;33504;52.066;6.096;2022-10-31T09:12:29;101962.34;;;20.33;41.49
47742;BME280;33504;52.066;6.096;2022-10-31T09:14:56;101964.06;;;20.12;41.18
47742;BME280;33504;52.066;6.096;2022-10-31T09:17:23;101959.93;;;19.96;42.13
47742;BME280;33504;52.066;6.096;2022-10-31T09:19:50;101956.19;;;20.07;42.37
47742;BME280;33504;52.066;6.096;2022-10-31T09:22:18;101954.56;;;20.02;42.07
47742;BME280;33504;52.066;6.096;2022-10-31T09:24:45;101949.39;;;19.75;42.53
47742;BME280;33504;52.066;6.096;2022-10-31T09:27:12;101947.55;;;19.85;42.71
47742;BME280;33504;52.066;6.096;2022-10-31T09:29:39;101947.18;;;19.93;42.82
47742;BME280;33504;52.066;6.096;2022-10-31T09:32:06;101952.01;;;20.49;42.71
47742;BME280;33504;52.066;6.096;2022-10-31T09:34:33;101948.81;;;20.75;42.28
47742;BME280;33504;52.066;6.096;2022-10-31T09:37:00;101953.71;;;20.88;41.54
47742;BME280;33504;52.066;6.096;2022-10-31T09:39:27;101956.97;;;20.81;41.36
47742;BME280;33504;52.066;6.096;2022-10-31T09:42:23;101957.14;;;21.08;41.27
47742;BME280;33504;52.066;6.096;2022-10-31T09:44:58;101957.15;;;20.42;41.70
47742;BME280;33504;52.066;6.096;2022-10-31T09:47:37;101936.24;;;20.12;42.32
47742;BME280;33504;52.066;6.096;2022-10-31T09:50:13;101917.63;;;20.42;42.93
47742;BME280;33504;52.066;6.096;2022-10-31T09:52:47;101891.05;;;20.34;43.49
47742;BME280;33504;52.066;6.096;2022-10-31T09:55:22;101874.53;;;20.01;43.94
47742;BME280;33504;52.066;6.096;2022-10-31T09:57:54;101897.81;;;20.03;44.28
47742;BME280;33504;52.066;6.096;2022-10-31T10:00:22;101914.03;;;20.39;43.78
47742;BME280;33504;52.066;6.096;2022-10-31T10:02:53;101916.65;;;20.79;43.80
47742;BME280;33504;52.066;6.096;2022-10-31T10:05:29;101919.08;;;20.43;43.03
47742;BME280;33504;52.066;6.096;2022-10-31T10:08:03;101918.30;;;20.55;42.96
47742;BME280;33504;52.066;6.096;2022-10-31T10:10:43;101915.78;;;20.29;42.41
47742;BME280;33504;52.066;6.096;2022-10-31T10:13:26;101904.65;;;19.42;41.95
47742;BME280;33504;52.066;6.096;2022-10-31T10:16:08;101911.06;;;19.16;42.32
47742;BME280;33504;52.066;6.096;2022-10-31T10:18:46;101911.20;;;19.35;42.85
47742;BME280;33504;52.066;6.096;2022-10-31T10:21:26;101900.63;;;19.08;42.80
47742;BME280;33504;52.066;6.096;2022-10-31T10:24:05;101913.10;;;19.42;42.71
47742;BME280;33504;52.066;6.096;2022-10-31T10:26:41;101906.05;;;19.46;42.94
47742;BME280;33504;52.066;6.096;2022-10-31T10:29:23;101893.82;;;19.60;43.42
47742;BME280;33504;52.066;6.096;2022-10-31T10:31:55;101887.97;;;19.56;43.07
47742;BME280;33504;52.066;6.096;2022-10-31T10:34:27;101875.24;;;19.46;42.90
47742;BME280;33504;52.066;6.096;2022-10-31T10:37:00;101877.14;;;19.14;42.97
47742;BME280;33504;52.066;6.096;2022-10-31T10:39:32;101879.14;;;19.55;42.70
47742;BME280;33504;52.066;6.096;2022-10-31T10:42:09;101872.79;;;19.52;43.10
47742;BME280;33504;52.066;6.096;2022-10-31T10:44:39;101874.00;;;19.66;43.22
47742;BME280;33504;52.066;6.096;2022-10-31T10:47:06;101874.00;;;19.24;43.64
47742;BME280;33504;52.066;6.096;2022-10-31T10:49:38;101875.57;;;19.16;43.86
47742;BME280;33504;52.066;6.096;2022-10-31T10:52:13;101874.77;;;19.36;43.46
47742;BME280;33504;52.066;6.096;2022-10-31T10:54:58;101866.05;;;19.28;43.37
47742;BME280;33504;52.066;6.096;2022-10-31T10:57:39;101865.23;;;19.63;43.45
47742;BME280;33504;52.066;6.096;2022-10-31T11:00:18;101860.39;;;19.74;43.84
47742;BME280;33504;52.066;6.096;2022-10-31T11:02:45;101857.96;;;19.54;43.75
47742;BME280;33504;52.066;6.096;2022-10-31T11:05:18;101856.15;;;19.87;43.58
47742;BME280;33504;52.066;6.096;2022-10-31T11:07:46;101841.38;;;20.11;43.30
47742;BME280;33504;52.066;6.096;2022-10-31T11:10:15;101833.50;;;20.16;43.58
47742;BME280;33504;52.066;6.096;2022-10-31T11:12:44;101827.59;;;19.84;43.53
47742;BME280;33504;52.066;6.096;2022-10-31T11:15:20;101820.79;;;20.05;42.77
47742;BME280;33504;52.066;6.096;2022-10-31T11:17:49;101815.95;;;20.12;42.68
47742;BME280;33504;52.066;6.096;2022-10-31T11:20:28;101814.59;;;20.08;42.98
47742;BME280;33504;52.066;6.096;2022-10-31T11:23:03;101803.84;;;20.00;42.93
47742;BME280;33504;52.066;6.096;2022-10-31T11:25:31;101792.79;;;20.14;42.83
47742;BME280;33504;52.066;6.096;2022-10-31T11:28:00;101794.07;;;20.19;43.07
47742;BME280;33504;52.066;6.096;2022-10-31T11:30:28;101796.35;;;19.86;43.02
47742;BME280;33504;52.066;6.096;2022-10-31T11:32:56;101783.27;;;20.23;42.76
47742;BME280;33504;52.066;6.096;2022-10-31T11:35:24;101779.25;;;20.81;42.46
47742;BME280;33504;52.066;6.096;2022-10-31T11:37:53;101765.41;;;20.40;42.08
47742;BME280;33504;52.066;6.096;2022-10-31T11:40:24;101760.04;;;20.36;42.17
47742;BME280;33504;52.066;6.096;2022-10-31T11:42:53;101759.02;;;20.41;41.90
47742;BME280;33504;52.066;6.096;2022-10-31T11:45:29;101760.13;;;20.31;41.99
47742;BME280;33504;52.066;6.096;2022-10-31T11:47:58;101750.75;;;20.26;42.22
47742;BME280;33504;52.066;6.096;2022-10-31T11:50:32;101751.77;;;20.05;42.50
47742;BME280;33504;52.066;6.096;2022-10-31T11:53:02;101749.05;;;20.35;42.54
47742;BME280;33504;52.066;6.096;2022-10-31T11:55:32;101746.49;;;20.52;42.71
47742;BME280;33504;52.066;6.096;2022-10-31T11:57:59;101735.98;;;20.45;43.03
47742;BME280;33504;52.066;6.096;2022-10-31T12:00:28;101731.80;;;20.26;43.26
47742;BME280;33504;52.066;6.096;2022-10-31T12:03:11;101728.74;;;20.67;43.11
47742;BME280;33504;52.066;6.096;2022-10-31T12:05:40;101729.39;;;20.79;43.19
47742;BME280;33504;52.066;6.096;2022-10-31T12:08:10;101732.69;;;20.75;43.21
47742;BME280;33504;52.066;6.096;2022-10-31T12:10:44;101732.80;;;20.28;42.93
47742;BME280;33504;52.066;6.096;2022-10-31T12:13:28;101731.85;;;20.60;43.03
47742;BME280;33504;52.066;6.096;2022-10-31T12:16:02;101718.44;;;20.39;42.92
47742;BME280;33504;52.066;6.096;2022-10-31T12:18:44;101713.65;;;20.52;42.07
47742;BME280;33504;52.066;6.096;2022-10-31T12:21:24;101698.19;;;20.28;42.29
47742;BME280;33504;52.066;6.096;2022-10-31T12:24:04;101696.43;;;20.61;42.20
47742;BME280;33504;52.066;6.096;2022-10-31T12:26:41;101687.66;;;21.05;42.11
47742;BME280;33504;52.066;6.096;2022-10-31T12:29:23;101678.44;;;20.55;42.40
47742;BME280;33504;52.066;6.096;2022-10-31T12:32:00;101675.60;;;20.27;42.69
47742;BME280;33504;52.066;6.096;2022-10-31T12:34:42;101674.67;;;20.40;42.40
47742;BME280;33504;52.066;6.096;2022-10-31T12:37:21;101670.78;;;20.20;42.61
47742;BME280;33504;52.066;6.096;2022-10-31T12:40:01;101661.38;;;20.13;42.91
47742;BME280;33504;52.066;6.096;2022-10-31T12:42:43;101656.79;;;20.42;42.80
47742;BME280;33504;52.066;6.096;2022-10-31T12:45:27;101646.18;;;20.43;43.02
47742;BME280;33504;52.066;6.096;2022-10-31T12:48:09;101641.37;;;19.89;43.18
47742;BME280;33504;52.066;6.096;2022-10-31T12:50:50;101634.33;;;20.35;43.19
47742;BME280;33504;52.066;6.096;2022-10-31T12:53:30;101630.21;;;20.39;43.12
47742;BME280;33504;52.066;6.096;2022-10-31T12:56:09;101624.37;;;20.39;43.05
47742;BME280;33504;52.066;6.096;2022-10-31T12:58:47;101614.51;;;20.30;43.27
47742;BME280;33504;52.066;6.096;2022-10-31T13:01:20;101606.21;;;20.75;43.40
47742;BME280;33504;52.066;6.096;2022-10-31T13:03:53;101602.31;;;20.75;43.32
47742;BME280;33504;52.066;6.096;2022-10-31T13:06:27;101592.98;;;20.86;43.22